SWR918 LOWW-EDDM
Flight info
| Callsign | SWR918 |
|---|---|
| Flight time | N/A |
| Altitude | 28000 |
| Route | SOVIL2B/16 SOVIL DCT SITNI DCT BAGSI DCT MATIG DCT AMADI Q113 NAPSA NAPSA1B |
| Aircraft | A20N/M-SDE2E3FGHIRWXY/LB1 |
Departure
| Time | 2026-05-06 18:42 |
|---|---|
| Airport | Vienna International Airport (LOWW) |
Arrival
| Time | N/A |
|---|---|
| Airport | Munich Airport (EDDM) |
| Time | Latitude | Longitude | Altitude | Speed | Heading |
|---|---|---|---|---|---|
| 2026-05-06 18:19 | 48.11613 | 16.57140 | 605 ft | 0 kts | 26° |
| 2026-05-06 18:37 | 48.11620 | 16.57146 | 605 ft | 3 kts | 26° |
| 2026-05-06 18:37 | 48.11649 | 16.57172 | 605 ft | 6 kts | 49° |
| 2026-05-06 18:38 | 48.11641 | 16.57255 | 603 ft | 10 kts | 115° |
| 2026-05-06 18:38 | 48.11617 | 16.57369 | 601 ft | 11 kts | 75° |
| 2026-05-06 18:38 | 48.11689 | 16.57398 | 598 ft | 14 kts | 345° |
| 2026-05-06 18:38 | 48.11794 | 16.57354 | 596 ft | 16 kts | 344° |
| 2026-05-06 18:39 | 48.11912 | 16.57302 | 593 ft | 19 kts | 343° |
| 2026-05-06 18:39 | 48.11985 | 16.57321 | 589 ft | 9 kts | 56° |
| 2026-05-06 18:39 | 48.12007 | 16.57425 | 588 ft | 11 kts | 77° |
| 2026-05-06 18:40 | 48.12003 | 16.57546 | 589 ft | 0 kts | 105° |
| 2026-05-06 18:40 | 48.11999 | 16.57567 | 589 ft | 5 kts | 106° |
| 2026-05-06 18:40 | 48.11980 | 16.57667 | 589 ft | 14 kts | 107° |
| 2026-05-06 18:41 | 48.11922 | 16.57826 | 590 ft | 22 kts | 145° |
| 2026-05-06 18:41 | 48.11646 | 16.57961 | 592 ft | 74 kts | 164° |
| 2026-05-06 18:41 | 48.10923 | 16.58267 | 596 ft | 138 kts | 164° |
| 2026-05-06 18:41 | 48.09863 | 16.58715 | 825 ft | 169 kts | 165° |
| 2026-05-06 18:42 | 48.08768 | 16.59181 | 1607 ft | 164 kts | 167° |
| 2026-05-06 18:42 | 48.07720 | 16.59623 | 2476 ft | 158 kts | 169° |
| 2026-05-06 18:42 | 48.06628 | 16.60024 | 2981 ft | 169 kts | 178° |
| 2026-05-06 18:42 | 48.05468 | 16.59660 | 3383 ft | 182 kts | 210° |
| 2026-05-06 18:43 | 48.04519 | 16.58265 | 3715 ft | 207 kts | 232° |
| 2026-05-06 18:43 | 48.03643 | 16.56451 | 4190 ft | 225 kts | 232° |
| 2026-05-06 18:43 | 48.02758 | 16.54415 | 4710 ft | 245 kts | 246° |
| 2026-05-06 18:43 | 48.02565 | 16.51837 | 5429 ft | 259 kts | 270° |
| 2026-05-06 18:44 | 48.02699 | 16.49207 | 6335 ft | 260 kts | 270° |
| 2026-05-06 18:44 | 48.02812 | 16.46519 | 7199 ft | 262 kts | 269° |
| 2026-05-06 18:44 | 48.02904 | 16.43822 | 7996 ft | 265 kts | 269° |
| 2026-05-06 18:44 | 48.02982 | 16.41073 | 8771 ft | 269 kts | 269° |
| 2026-05-06 18:45 | 48.03051 | 16.38273 | 9541 ft | 273 kts | 270° |
| 2026-05-06 18:45 | 48.03117 | 16.35474 | 10272 ft | 276 kts | 269° |
| 2026-05-06 18:45 | 48.03182 | 16.32556 | 10770 ft | 290 kts | 269° |
| 2026-05-06 18:45 | 48.03247 | 16.29473 | 11148 ft | 307 kts | 269° |
| 2026-05-06 18:46 | 48.03311 | 16.26166 | 11504 ft | 325 kts | 269° |
| 2026-05-06 18:46 | 48.03377 | 16.22751 | 11934 ft | 338 kts | 269° |
| 2026-05-06 18:46 | 48.03445 | 16.19242 | 12606 ft | 342 kts | 268° |
| 2026-05-06 18:46 | 48.03510 | 16.15715 | 13307 ft | 345 kts | 268° |
| 2026-05-06 18:47 | 48.03571 | 16.12149 | 13991 ft | 349 kts | 268° |
| 2026-05-06 18:47 | 48.03635 | 16.08497 | 14673 ft | 351 kts | 268° |
| 2026-05-06 18:47 | 48.03698 | 16.04862 | 15308 ft | 355 kts | 268° |
| 2026-05-06 18:47 | 48.03759 | 16.01186 | 15961 ft | 358 kts | 268° |
| 2026-05-06 18:48 | 48.03823 | 15.97454 | 16614 ft | 361 kts | 268° |
| 2026-05-06 18:48 | 48.03884 | 15.93698 | 17243 ft | 365 kts | 268° |
| 2026-05-06 18:48 | 48.03944 | 15.89910 | 17873 ft | 368 kts | 268° |
| 2026-05-06 18:48 | 48.04002 | 15.86137 | 18483 ft | 371 kts | 268° |
| 2026-05-06 18:49 | 48.04060 | 15.82279 | 19070 ft | 374 kts | 268° |
| 2026-05-06 18:49 | 48.04118 | 15.78401 | 19641 ft | 377 kts | 268° |
| 2026-05-06 18:49 | 48.04175 | 15.74484 | 20222 ft | 379 kts | 268° |
| 2026-05-06 18:49 | 48.04230 | 15.70553 | 20801 ft | 382 kts | 268° |
| 2026-05-06 18:50 | 48.04284 | 15.66597 | 21348 ft | 385 kts | 268° |
| 2026-05-06 18:50 | 48.04338 | 15.62609 | 21870 ft | 388 kts | 268° |
| 2026-05-06 18:50 | 48.04392 | 15.58578 | 22408 ft | 391 kts | 268° |
| 2026-05-06 18:50 | 48.04443 | 15.54509 | 22948 ft | 394 kts | 268° |
| 2026-05-06 18:51 | 48.04493 | 15.50424 | 23441 ft | 398 kts | 268° |
| 2026-05-06 18:51 | 48.04542 | 15.46250 | 23953 ft | 400 kts | 268° |
| 2026-05-06 18:51 | 48.04591 | 15.42153 | 24476 ft | 402 kts | 268° |
| 2026-05-06 18:51 | 48.04637 | 15.37953 | 24996 ft | 403 kts | 268° |
| 2026-05-06 18:52 | 48.04699 | 15.33789 | 25605 ft | 402 kts | 268° |
| 2026-05-06 18:52 | 48.04771 | 15.29639 | 26260 ft | 400 kts | 268° |
| 2026-05-06 18:52 | 48.04841 | 15.25504 | 26781 ft | 400 kts | 267° |
| 2026-05-06 18:52 | 48.04908 | 15.21357 | 27048 ft | 401 kts | 267° |
| 2026-05-06 18:53 | 48.04972 | 15.17223 | 27309 ft | 401 kts | 267° |
| 2026-05-06 18:53 | 48.05034 | 15.13081 | 27571 ft | 402 kts | 267° |
| 2026-05-06 18:53 | 48.05094 | 15.08898 | 27712 ft | 404 kts | 267° |
| 2026-05-06 18:53 | 48.05152 | 15.04733 | 27711 ft | 404 kts | 267° |
| 2026-05-06 18:54 | 48.05211 | 15.00554 | 27712 ft | 404 kts | 267° |
| 2026-05-06 18:54 | 48.05266 | 14.96373 | 27718 ft | 405 kts | 267° |
| 2026-05-06 18:54 | 48.05320 | 14.92120 | 27716 ft | 416 kts | 267° |
| 2026-05-06 18:54 | 48.05370 | 14.87753 | 27715 ft | 427 kts | 267° |
| 2026-05-06 18:55 | 48.05423 | 14.83310 | 27713 ft | 433 kts | 267° |
| 2026-05-06 18:55 | 48.05470 | 14.78797 | 27714 ft | 440 kts | 267° |
| 2026-05-06 18:55 | 48.05509 | 14.74237 | 27721 ft | 442 kts | 267° |
| 2026-05-06 18:55 | 48.05547 | 14.69612 | 27720 ft | 442 kts | 267° |
| 2026-05-06 18:56 | 48.05583 | 14.65036 | 27722 ft | 442 kts | 267° |
| 2026-05-06 18:56 | 48.05616 | 14.60480 | 27723 ft | 442 kts | 267° |
| 2026-05-06 18:56 | 48.05646 | 14.55912 | 27724 ft | 441 kts | 267° |
| 2026-05-06 18:56 | 48.05674 | 14.51346 | 27726 ft | 441 kts | 267° |
| 2026-05-06 18:57 | 48.05701 | 14.46796 | 27724 ft | 441 kts | 267° |
| 2026-05-06 18:57 | 48.05726 | 14.42183 | 27723 ft | 441 kts | 267° |
| 2026-05-06 18:57 | 48.05748 | 14.37610 | 27727 ft | 441 kts | 267° |
| 2026-05-06 18:57 | 48.05768 | 14.33067 | 27730 ft | 440 kts | 266° |
| 2026-05-06 18:58 | 48.05788 | 14.28521 | 27717 ft | 440 kts | 266° |
| 2026-05-06 18:58 | 48.05809 | 14.23986 | 27608 ft | 437 kts | 266° |
| 2026-05-06 18:58 | 48.05828 | 14.19512 | 27085 ft | 432 kts | 266° |
| 2026-05-06 18:58 | 48.05843 | 14.15009 | 25922 ft | 438 kts | 266° |
| 2026-05-06 18:59 | 48.05853 | 14.10489 | 24514 ft | 446 kts | 266° |
| 2026-05-06 18:59 | 48.05861 | 14.05878 | 23280 ft | 449 kts | 266° |
| 2026-05-06 18:59 | 48.05873 | 14.01227 | 22748 ft | 436 kts | 266° |
| 2026-05-06 18:59 | 48.05887 | 13.96801 | 22479 ft | 418 kts | 266° |
| 2026-05-06 19:00 | 48.05898 | 13.92629 | 21981 ft | 395 kts | 266° |
| 2026-05-06 19:00 | 48.05904 | 13.88618 | 20802 ft | 388 kts | 266° |
| 2026-05-06 19:00 | 48.05903 | 13.84651 | 19215 ft | 390 kts | 266° |
| 2026-05-06 19:00 | 48.05899 | 13.80631 | 17845 ft | 384 kts | 266° |
| 2026-05-06 19:01 | 48.05899 | 13.76782 | 17294 ft | 360 kts | 267° |
| 2026-05-06 19:01 | 48.05897 | 13.73085 | 17070 ft | 357 kts | 266° |
| 2026-05-06 19:01 | 48.05893 | 13.69409 | 16842 ft | 355 kts | 267° |
| 2026-05-06 19:01 | 48.05885 | 13.65708 | 16592 ft | 354 kts | 266° |
| 2026-05-06 19:02 | 48.05880 | 13.62055 | 16358 ft | 353 kts | 266° |
| 2026-05-06 19:02 | 48.05872 | 13.58413 | 16130 ft | 352 kts | 267° |
| 2026-05-06 19:02 | 48.05894 | 13.54771 | 15887 ft | 352 kts | 269° |
| 2026-05-06 19:02 | 48.06040 | 13.51102 | 15633 ft | 353 kts | 271° |
| 2026-05-06 19:03 | 48.06237 | 13.47477 | 15411 ft | 351 kts | 272° |
| 2026-05-06 19:03 | 48.06438 | 13.43863 | 15165 ft | 351 kts | 271° |
| 2026-05-06 19:03 | 48.06658 | 13.40258 | 14915 ft | 351 kts | 275° |
| 2026-05-06 19:03 | 48.07304 | 13.36737 | 14674 ft | 355 kts | 286° |
| 2026-05-06 19:04 | 48.08203 | 13.33263 | 14428 ft | 355 kts | 287° |
| 2026-05-06 19:04 | 48.09108 | 13.29843 | 14198 ft | 355 kts | 287° |
| 2026-05-06 19:04 | 48.09989 | 13.26424 | 13948 ft | 354 kts | 286° |
| 2026-05-06 19:04 | 48.10849 | 13.22996 | 13706 ft | 353 kts | 285° |
| 2026-05-06 19:05 | 48.11694 | 13.19576 | 13452 ft | 352 kts | 285° |
| 2026-05-06 19:05 | 48.12535 | 13.16111 | 13213 ft | 352 kts | 285° |
| 2026-05-06 19:05 | 48.13356 | 13.12694 | 12955 ft | 350 kts | 285° |
| 2026-05-06 19:05 | 48.14179 | 13.09267 | 12714 ft | 351 kts | 285° |
| 2026-05-06 19:06 | 48.14997 | 13.05849 | 12483 ft | 350 kts | 285° |
| 2026-05-06 19:06 | 48.15813 | 13.02432 | 12242 ft | 349 kts | 285° |
| 2026-05-06 19:06 | 48.16625 | 12.99020 | 11993 ft | 350 kts | 286° |
| 2026-05-06 19:06 | 48.17434 | 12.95616 | 11664 ft | 346 kts | 286° |
| 2026-05-06 19:07 | 48.18230 | 12.92251 | 11087 ft | 345 kts | 286° |
| 2026-05-06 19:07 | 48.19025 | 12.88887 | 10559 ft | 342 kts | 287° |
| 2026-05-06 19:07 | 48.19813 | 12.85550 | 10327 ft | 330 kts | 287° |
| 2026-05-06 19:07 | 48.20562 | 12.82377 | 10130 ft | 318 kts | 287° |
| 2026-05-06 19:08 | 48.21286 | 12.79316 | 9972 ft | 306 kts | 287° |
| 2026-05-06 19:08 | 48.21976 | 12.76410 | 9993 ft | 291 kts | 286° |
| 2026-05-06 19:08 | 48.22648 | 12.73550 | 9909 ft | 291 kts | 286° |
| 2026-05-06 19:08 | 48.23313 | 12.70704 | 9846 ft | 290 kts | 287° |
| 2026-05-06 19:09 | 48.23980 | 12.67854 | 9820 ft | 290 kts | 286° |
| 2026-05-06 19:09 | 48.24642 | 12.65035 | 9676 ft | 285 kts | 287° |
| 2026-05-06 19:09 | 48.25293 | 12.62253 | 9260 ft | 284 kts | 287° |
| 2026-05-06 19:09 | 48.25939 | 12.59466 | 8906 ft | 282 kts | 287° |
| 2026-05-06 19:10 | 48.26582 | 12.56728 | 8562 ft | 278 kts | 288° |
| 2026-05-06 19:10 | 48.27229 | 12.54015 | 8234 ft | 275 kts | 288° |
| 2026-05-06 19:10 | 48.27861 | 12.51338 | 7906 ft | 271 kts | 288° |
| 2026-05-06 19:10 | 48.28457 | 12.48677 | 7560 ft | 268 kts | 286° |
| 2026-05-06 19:11 | 48.28989 | 12.46028 | 7236 ft | 264 kts | 286° |
| 2026-05-06 19:11 | 48.29499 | 12.43419 | 6915 ft | 259 kts | 286° |
| 2026-05-06 19:11 | 48.30008 | 12.40836 | 6556 ft | 257 kts | 287° |
| 2026-05-06 19:11 | 48.30509 | 12.38287 | 6209 ft | 253 kts | 286° |
| 2026-05-06 19:12 | 48.31002 | 12.35787 | 5854 ft | 250 kts | 287° |
| 2026-05-06 19:12 | 48.31492 | 12.33294 | 5497 ft | 248 kts | 285° |
| 2026-05-06 19:12 | 48.31974 | 12.30838 | 5116 ft | 245 kts | 286° |
| 2026-05-06 19:12 | 48.32458 | 12.28393 | 4753 ft | 243 kts | 286° |
| 2026-05-06 19:13 | 48.32932 | 12.25982 | 4415 ft | 240 kts | 286° |
| 2026-05-06 19:13 | 48.33399 | 12.23594 | 4063 ft | 237 kts | 286° |
| 2026-05-06 19:13 | 48.33865 | 12.21225 | 3966 ft | 237 kts | 286° |
| 2026-05-06 19:13 | 48.34333 | 12.18857 | 3963 ft | 230 kts | 285° |
| 2026-05-06 19:14 | 48.34768 | 12.16642 | 3959 ft | 213 kts | 285° |
| 2026-05-06 19:14 | 48.35166 | 12.14601 | 3952 ft | 198 kts | 285° |
| 2026-05-06 19:14 | 48.35538 | 12.12692 | 3940 ft | 183 kts | 285° |
| 2026-05-06 19:14 | 48.35875 | 12.10949 | 3978 ft | 163 kts | 286° |
| 2026-05-06 19:15 | 48.36153 | 12.09338 | 3997 ft | 154 kts | 281° |
| 2026-05-06 19:15 | 48.36288 | 12.07748 | 3978 ft | 153 kts | 274° |
| 2026-05-06 19:15 | 48.36297 | 12.06157 | 3969 ft | 155 kts | 269° |
| 2026-05-06 19:15 | 48.36259 | 12.04528 | 3969 ft | 155 kts | 269° |
| 2026-05-06 19:16 | 48.36196 | 12.02914 | 3969 ft | 156 kts | 268° |
| 2026-05-06 19:16 | 48.36103 | 12.01289 | 3971 ft | 155 kts | 267° |
| 2026-05-06 19:16 | 48.35990 | 11.99665 | 3981 ft | 156 kts | 266° |
| 2026-05-06 19:16 | 48.35870 | 11.98071 | 3777 ft | 155 kts | 265° |
| 2026-05-06 19:17 | 48.35741 | 11.96465 | 3569 ft | 154 kts | 265° |
| 2026-05-06 19:17 | 48.35614 | 11.94875 | 3364 ft | 152 kts | 265° |
| 2026-05-06 19:17 | 48.35486 | 11.93300 | 3164 ft | 151 kts | 265° |
| 2026-05-06 19:17 | 48.35362 | 11.91761 | 2954 ft | 145 kts | 265° |
| 2026-05-06 19:18 | 48.35248 | 11.90328 | 2747 ft | 133 kts | 264° |
| 2026-05-06 19:18 | 48.35142 | 11.88961 | 2586 ft | 132 kts | 264° |
| 2026-05-06 19:18 | 48.35034 | 11.87585 | 2423 ft | 132 kts | 265° |
| 2026-05-06 19:18 | 48.34928 | 11.86230 | 2253 ft | 131 kts | 265° |
| 2026-05-06 19:19 | 48.34823 | 11.84864 | 2077 ft | 131 kts | 264° |
| 2026-05-06 19:19 | 48.34725 | 11.83500 | 1888 ft | 131 kts | 264° |